createdAt,value
2019-04-20T00:01:48.273Z,100645.80
2019-04-20T00:04:21.191Z,100642.64
2019-04-20T00:06:49.569Z,100644.44
2019-04-20T00:09:22.558Z,100595.34
2019-04-20T00:11:57.546Z,100642.20
2019-04-20T00:14:20.898Z,100645.62
2019-04-20T00:16:44.663Z,100642.48
2019-04-20T00:19:15.333Z,100643.95
2019-04-20T00:21:58.394Z,100639.78
2019-04-20T00:24:30.312Z,100642.34
2019-04-20T00:27:32.969Z,100640.30
2019-04-20T00:29:46.623Z,100640.16
2019-04-20T00:32:06.381Z,100639.15
2019-04-20T00:34:30.038Z,100639.80
2019-04-20T00:36:54.102Z,100633.54
2019-04-20T00:39:21.975Z,100635.30
2019-04-20T00:41:57.179Z,100637.42
2019-04-20T00:44:25.653Z,100631.77
2019-04-20T00:47:00.986Z,100635.22
2019-04-20T00:49:36.305Z,100635.05
2019-04-20T00:52:23.726Z,100627.16
2019-04-20T00:54:24.312Z,100632.56
2019-04-20T00:57:07.798Z,100633.53
2019-04-20T00:59:35.351Z,100632.00
2019-04-20T01:02:10.534Z,100632.83
2019-04-20T01:04:40.735Z,100631.02
2019-04-20T01:07:17.682Z,100631.36
2019-04-20T01:09:54.408Z,100630.02
2019-04-20T01:12:42.774Z,100633.22
2019-04-20T01:15:23.029Z,100629.65
2019-04-20T01:17:43.137Z,100635.19
2019-04-20T01:20:11.740Z,100629.84
2019-04-20T01:22:50.511Z,100636.86
2019-04-20T01:25:17.220Z,100629.22
2019-04-20T01:27:58.954Z,100633.15
2019-04-20T01:30:18.650Z,100629.11
2019-04-20T01:32:55.041Z,100631.34
2019-04-20T01:35:25.185Z,100629.48
2019-04-20T01:37:58.844Z,100632.91
2019-04-20T01:40:09.928Z,100637.61
2019-04-20T01:42:38.801Z,100638.09
2019-04-20T01:45:14.608Z,100638.55
2019-04-20T01:47:43.462Z,100638.17
2019-04-20T01:50:13.432Z,100638.48
2019-04-20T01:52:50.706Z,100636.78
2019-04-20T01:55:50.704Z,100638.17
2019-04-20T01:58:33.725Z,100636.47
2019-04-20T02:01:04.468Z,100631.65
2019-04-20T02:03:52.166Z,100636.87
2019-04-20T02:06:21.674Z,100635.95
2019-04-20T02:08:52.797Z,100634.61
2019-04-20T02:11:25.101Z,100635.08
2019-04-20T02:13:53.726Z,100637.97
2019-04-20T02:16:27.315Z,100641.23
2019-04-20T02:19:05.256Z,100642.50
2019-04-20T02:21:34.185Z,100641.75
2019-04-20T02:23:53.106Z,100641.89
2019-04-20T02:26:16.078Z,100642.64
2019-04-20T02:29:13.527Z,100643.91
2019-04-20T02:34:23.893Z,100646.09
2019-04-20T02:46:55.876Z,100647.67
2019-04-20T02:51:53.385Z,100653.80
2019-04-20T02:57:05.609Z,100653.60
2019-04-20T03:01:45.554Z,100654.47
2019-04-20T03:03:58.240Z,100658.70
2019-04-20T03:06:38.837Z,100653.37
2019-04-20T03:09:17.702Z,100649.09
2019-04-20T03:11:55.361Z,100652.81
2019-04-20T03:14:10.628Z,100652.72
2019-04-20T03:16:41.064Z,100648.16
2019-04-20T03:19:08.053Z,100655.92
2019-04-20T03:21:45.425Z,100647.91
2019-04-20T03:24:18.910Z,100651.75
2019-04-20T03:26:54.494Z,100650.34
2019-04-20T03:29:40.890Z,100649.34
2019-04-20T03:32:57.930Z,100650.72
2019-04-20T03:37:36.655Z,100650.09
2019-04-20T03:39:56.766Z,100648.22
2019-04-20T03:42:13.865Z,100647.70
2019-04-20T03:44:48.912Z,100649.55
2019-04-20T03:47:23.191Z,100651.41
2019-04-20T03:50:07.232Z,100647.70
2019-04-20T03:52:36.507Z,100647.70
2019-04-20T03:55:16.134Z,100657.06
2019-04-20T03:58:03.445Z,100658.76
2019-04-20T04:00:59.488Z,100664.09
2019-04-20T04:03:47.569Z,100670.75
2019-04-20T04:06:07.687Z,100676.38
2019-04-20T04:08:30.720Z,100672.91
2019-04-20T04:11:12.347Z,100671.08
2019-04-20T04:13:24.952Z,100671.03
2019-04-20T04:15:59.428Z,100670.17
2019-04-20T04:18:31.752Z,100673.24
2019-04-20T04:21:03.005Z,100669.39
2019-04-20T04:23:44.458Z,100674.42
2019-04-20T04:26:12.653Z,100673.59
2019-04-20T04:28:41.083Z,100680.14
2019-04-20T04:31:12.035Z,100681.32
2019-04-20T04:33:59.346Z,100686.81
2019-04-20T04:36:10.543Z,100684.49
2019-04-20T04:38:48.701Z,100688.53
2019-04-20T04:41:19.885Z,100687.91
2019-04-20T04:43:42.258Z,100690.65
2019-04-20T04:45:53.421Z,100690.30
2019-04-20T04:48:28.342Z,100691.97
2019-04-20T04:50:57.390Z,100693.95
2019-04-20T04:53:30.387Z,100692.95
2019-04-20T04:55:56.527Z,100699.83
2019-04-20T04:58:19.921Z,100699.50
2019-04-20T05:00:49.126Z,100701.48
2019-04-20T05:03:35.766Z,100696.62
2019-04-20T05:06:14.780Z,100705.19
2019-04-20T05:08:33.767Z,100706.20
2019-04-20T05:10:56.191Z,100708.05
2019-04-20T05:13:27.657Z,100713.50
2019-04-20T05:16:07.590Z,100711.65
2019-04-20T05:18:44.818Z,100705.44
2019-04-20T05:21:30.186Z,100704.37
2019-04-20T05:24:21.990Z,100704.31
2019-04-20T05:27:01.510Z,100705.16
2019-04-20T05:29:14.297Z,100702.34
2019-04-20T05:31:46.206Z,100702.11
2019-04-20T05:34:30.822Z,100695.58
2019-04-20T05:36:58.124Z,100701.31
2019-04-20T05:39:32.608Z,100700.47
2019-04-20T05:42:02.978Z,100698.73
2019-04-20T05:44:39.449Z,100691.55
2019-04-20T05:47:06.866Z,100701.23
2019-04-20T05:49:34.873Z,100697.73
2019-04-20T05:52:22.543Z,100708.49
2019-04-20T05:54:39.163Z,100705.52
2019-04-20T05:57:17.220Z,100698.47
2019-04-20T05:59:49.376Z,100699.55
2019-04-20T06:02:11.143Z,100701.88
2019-04-20T06:04:55.647Z,100702.31
2019-04-20T06:07:08.261Z,100702.94
2019-04-20T06:09:39.818Z,100705.48
2019-04-20T06:12:27.202Z,100709.69
2019-04-20T06:15:04.488Z,100708.37
2019-04-20T06:17:53.123Z,100709.54
2019-04-20T06:20:31.312Z,100712.30
2019-04-20T06:23:08.220Z,100704.75
2019-04-20T06:25:44.123Z,100709.67
2019-04-20T06:28:04.785Z,100701.26
2019-04-20T06:30:33.171Z,100699.05
2019-04-20T06:34:27.576Z,100700.59
2019-04-20T06:36:32.536Z,100697.80
2019-04-20T06:39:13.347Z,100700.30
2019-04-20T06:41:44.698Z,100691.77
2019-04-20T06:44:00.648Z,100699.64
2019-04-20T06:46:28.339Z,100700.58
2019-04-20T06:49:05.678Z,100704.48
2019-04-20T06:51:40.983Z,100705.25
2019-04-20T06:54:03.147Z,100702.45
2019-04-20T06:56:42.483Z,100704.64
2019-04-20T06:59:24.220Z,100699.31
2019-04-20T07:02:21.888Z,100692.39
2019-04-20T07:04:57.617Z,100692.77
2019-04-20T07:07:14.637Z,100693.84
2019-04-20T07:09:52.967Z,100691.78
2019-04-20T07:12:12.862Z,100688.00
2019-04-20T07:14:32.881Z,100687.17
2019-04-20T07:20:16.012Z,100687.47
2019-04-20T07:23:18.943Z,100686.95
2019-04-20T07:25:39.044Z,100681.95
2019-04-20T07:28:05.844Z,100681.06
2019-04-20T07:30:35.360Z,100680.78
2019-04-20T07:33:09.070Z,100681.23
2019-04-20T07:35:30.388Z,100681.14
2019-04-20T07:40:28.779Z,100671.70
2019-04-20T07:43:01.589Z,100673.91
2019-04-20T07:45:45.044Z,100673.50
2019-04-20T07:48:09.345Z,100668.13
2019-04-20T07:50:26.175Z,100664.81
2019-04-20T07:52:51.184Z,100665.47
2019-04-20T07:55:40.548Z,100665.05
2019-04-20T07:57:53.717Z,100662.64
2019-04-20T08:00:44.916Z,100662.82
2019-04-20T08:03:29.379Z,100659.27
2019-04-20T08:05:53.800Z,100659.47
2019-04-20T08:08:28.169Z,100655.88
2019-04-20T08:10:58.672Z,100653.72
2019-04-20T08:13:43.667Z,100652.16
2019-04-20T08:18:35.134Z,100648.23
2019-04-20T08:21:02.678Z,100651.02
2019-04-20T08:23:30.003Z,100650.33
2019-04-20T08:25:53.199Z,100648.09
2019-04-20T08:28:29.181Z,100642.75
2019-04-20T08:31:21.725Z,100647.59
2019-04-20T08:34:07.806Z,100641.81
2019-04-20T08:36:33.239Z,100636.87
2019-04-20T08:41:29.845Z,100637.30
2019-04-20T08:44:09.834Z,100628.13
2019-04-20T08:46:33.259Z,100632.20
2019-04-20T08:49:03.981Z,100630.45
2019-04-20T08:51:52.468Z,100625.77
2019-04-20T08:54:12.435Z,100617.55
2019-04-20T08:56:31.649Z,100612.04
2019-04-20T08:58:52.766Z,100608.78
2019-04-20T09:01:28.243Z,100605.94
2019-04-20T09:03:59.942Z,100600.52
2019-04-20T09:06:37.602Z,100602.44
2019-04-20T09:09:07.997Z,100598.20
2019-04-20T09:11:42.319Z,100596.98
2019-04-20T09:13:55.009Z,100594.45
2019-04-20T09:16:26.964Z,100595.11
2019-04-20T09:18:57.481Z,100590.77
2019-04-20T09:21:30.768Z,100594.55
2019-04-20T09:24:16.238Z,100588.64
2019-04-20T09:26:39.407Z,100588.05
2019-04-20T09:29:05.628Z,100580.36
2019-04-20T09:31:43.697Z,100582.63
2019-04-20T09:34:24.751Z,100584.66
2019-04-20T09:37:22.349Z,100581.22
2019-04-20T09:39:44.898Z,100579.89
2019-04-20T09:42:28.296Z,100571.80
2019-04-20T09:44:59.693Z,100571.82
2019-04-20T09:47:33.758Z,100564.83
2019-04-20T09:50:12.056Z,100560.30
2019-04-20T09:52:45.729Z,100563.09
2019-04-20T09:55:10.927Z,100559.80
2019-04-20T09:57:43.642Z,100552.74
2019-04-20T10:00:13.387Z,100552.88
2019-04-20T10:02:29.846Z,100557.00
2019-04-20T10:04:55.647Z,100552.73
2019-04-20T10:07:26.136Z,100526.38
2019-04-20T10:09:54.136Z,100545.25
2019-04-20T10:12:22.087Z,100532.26
2019-04-20T10:14:50.966Z,100530.59
2019-04-20T10:17:20.253Z,100530.70
2019-04-20T10:19:48.994Z,100526.27
2019-04-20T10:22:18.446Z,100529.61
2019-04-20T10:24:49.211Z,100522.50
2019-04-20T10:27:18.923Z,100521.31
2019-04-20T10:29:49.704Z,100516.52
2019-04-20T10:32:19.732Z,100515.23
2019-04-20T10:34:50.772Z,100514.22
2019-04-20T10:37:27.249Z,100510.04
2019-04-20T10:39:58.555Z,100507.87
2019-04-20T10:42:28.113Z,100503.30
2019-04-20T10:44:58.822Z,100500.14
2019-04-20T10:47:27.294Z,100502.38
2019-04-20T10:49:56.475Z,100501.37
2019-04-20T10:52:25.682Z,100491.73
2019-04-20T10:54:54.384Z,100506.78
2019-04-20T10:57:23.648Z,100500.37
2019-04-20T10:59:52.045Z,100496.45
2019-04-20T11:02:19.837Z,100495.77
2019-04-20T11:04:48.493Z,100494.25
2019-04-20T11:07:16.770Z,100481.89
2019-04-20T11:09:44.836Z,100480.06
2019-04-20T11:12:12.653Z,100482.95
2019-04-20T11:14:43.715Z,100477.72
2019-04-20T11:17:10.079Z,100480.02
2019-04-20T11:19:39.237Z,100472.95
2019-04-20T11:22:08.374Z,100478.91
2019-04-20T11:24:36.568Z,100469.86
2019-04-20T11:27:04.543Z,100470.51
2019-04-20T11:29:36.067Z,100463.84
2019-04-20T11:32:05.265Z,100455.34
2019-04-20T11:34:38.400Z,100460.72
2019-04-20T11:37:03.390Z,100453.44
2019-04-20T11:39:32.882Z,100448.69
2019-04-20T11:42:01.561Z,100454.33
2019-04-20T11:44:31.510Z,100450.01
2019-04-20T11:47:00.627Z,100449.10
2019-04-20T11:49:28.669Z,100447.95
2019-04-20T11:51:57.327Z,100439.02
2019-04-20T11:54:26.333Z,100439.40
2019-04-20T11:56:55.490Z,100437.53
2019-04-20T11:59:25.281Z,100435.13
2019-04-20T12:02:04.662Z,100438.25
2019-04-20T12:04:47.175Z,100437.36
2019-04-20T12:07:08.874Z,100427.44
2019-04-20T12:09:37.719Z,100426.69
2019-04-20T12:12:17.879Z,100418.48
2019-04-20T12:14:36.846Z,100419.63
2019-04-20T12:17:05.892Z,100404.75
2019-04-20T12:19:36.097Z,100415.28
2019-04-20T12:22:03.654Z,100410.26
2019-04-20T12:24:31.498Z,100407.41
2019-04-20T12:27:00.661Z,100410.80
2019-04-20T12:29:29.845Z,100414.31
2019-04-20T12:32:01.853Z,100415.56
2019-04-20T12:34:28.687Z,100412.39
2019-04-20T12:36:58.285Z,100406.42
2019-04-20T12:39:27.018Z,100404.42
2019-04-20T12:42:08.135Z,100399.48
2019-04-20T12:44:35.503Z,100406.34
2019-04-20T12:47:03.752Z,100396.30
2019-04-20T12:49:31.760Z,100387.38
2019-04-20T12:52:04.403Z,100389.37
2019-04-20T12:54:29.178Z,100381.34
2019-04-20T12:56:58.463Z,100379.33
2019-04-20T12:59:27.562Z,100374.19
2019-04-20T13:01:55.786Z,100366.47
2019-04-20T13:04:24.679Z,100367.38
2019-04-20T13:06:55.165Z,100363.27
2019-04-20T13:09:26.386Z,100359.95
2019-04-20T13:12:05.361Z,100353.33
2019-04-20T13:15:46.988Z,100339.19
2019-04-20T13:18:17.386Z,100340.98
2019-04-20T13:20:45.856Z,100335.41
2019-04-20T13:23:14.949Z,100335.69
2019-04-20T13:25:43.314Z,100323.33
2019-04-20T13:28:11.178Z,100325.23
2019-04-20T13:30:39.730Z,100328.52
2019-04-20T13:33:07.994Z,100321.33
2019-04-20T13:35:36.398Z,100323.36
2019-04-20T13:38:04.619Z,100318.70
2019-04-20T13:40:33.401Z,100313.19
2019-04-20T13:43:01.694Z,100317.63
2019-04-20T13:45:32.940Z,100307.31
2019-04-20T13:48:01.158Z,100307.16
2019-04-20T13:50:29.628Z,100299.58
2019-04-20T13:52:58.597Z,100295.03
2019-04-20T13:55:27.301Z,100301.61
2019-04-20T13:58:02.132Z,100291.77
2019-04-20T14:00:55.526Z,100293.99
2019-04-20T14:03:24.917Z,100288.89
2019-04-20T14:05:53.005Z,100281.69
2019-04-20T14:08:25.604Z,100277.39
2019-04-20T14:10:53.537Z,100278.22
2019-04-20T14:13:23.799Z,100270.97
2019-04-20T14:15:51.472Z,100270.34
2019-04-20T14:18:19.472Z,100268.41
2019-04-20T14:20:47.957Z,100265.02
2019-04-20T14:23:17.015Z,100265.30
2019-04-20T14:25:45.150Z,100261.34
2019-04-20T14:28:13.288Z,100256.50
2019-04-20T14:30:41.410Z,100251.92
2019-04-20T14:33:10.566Z,100247.25
2019-04-20T14:35:38.780Z,100247.17
2019-04-20T14:38:07.905Z,100241.34
2019-04-20T14:40:36.679Z,100241.66
2019-04-20T14:43:05.112Z,100234.98
2019-04-20T14:45:32.867Z,100233.33
2019-04-20T14:48:01.679Z,100231.70
2019-04-20T14:50:29.909Z,100232.66
2019-04-20T14:52:57.749Z,100231.16
2019-04-20T14:55:25.848Z,100228.41
2019-04-20T14:57:55.591Z,100229.29
2019-04-20T15:01:06.811Z,100225.04
2019-04-20T15:03:38.354Z,100219.44
2019-04-20T15:06:09.564Z,100219.09
2019-04-20T15:08:38.728Z,100215.33
2019-04-20T15:11:09.387Z,100208.89
2019-04-20T15:13:38.647Z,100209.49
2019-04-20T15:16:06.753Z,100201.90
2019-04-20T15:18:48.193Z,100199.31
2019-04-20T15:21:17.655Z,100197.82
2019-04-20T15:23:45.707Z,100197.80
2019-04-20T15:26:13.447Z,100192.92
2019-04-20T15:28:42.124Z,100193.92
2019-04-20T15:31:10.545Z,100195.06
2019-04-20T15:33:39.091Z,100186.67
2019-04-20T15:36:08.277Z,100189.87
2019-04-20T15:38:36.290Z,100183.48
2019-04-20T15:41:05.302Z,100179.09
2019-04-20T15:43:35.211Z,100182.00
2019-04-20T15:46:03.440Z,100179.75
2019-04-20T15:48:32.187Z,100181.58
2019-04-20T15:51:01.535Z,100177.92
2019-04-20T15:53:29.627Z,100178.45
2019-04-20T15:55:57.744Z,100179.84
2019-04-20T15:58:26.197Z,100178.69
2019-04-20T16:00:54.648Z,100175.67
2019-04-20T16:03:30.545Z,100170.27
2019-04-20T16:06:03.297Z,100175.66
2019-04-20T16:08:38.905Z,100179.60
2019-04-20T16:11:08.941Z,100173.16
2019-04-20T16:13:41.948Z,100171.65
2019-04-20T16:16:07.972Z,100176.72
2019-04-20T16:18:37.045Z,100172.13
2019-04-20T16:21:09.853Z,100168.68
2019-04-20T16:23:50.581Z,100168.66
2019-04-20T16:26:41.930Z,100168.11
2019-04-20T16:29:11.515Z,100168.16
2019-04-20T16:31:40.521Z,100157.31
2019-04-20T16:34:09.541Z,100158.05
2019-04-20T16:36:38.885Z,100158.44
2019-04-20T16:39:09.233Z,100155.89
2019-04-20T16:41:38.235Z,100152.80
2019-04-20T16:44:07.186Z,100151.42
2019-04-20T16:46:36.287Z,100146.44
2019-04-20T16:49:05.211Z,100142.70
2019-04-20T16:51:34.609Z,100141.31
2019-04-20T16:54:03.727Z,100137.25
2019-04-20T16:56:32.909Z,100137.42
2019-04-20T16:59:06.096Z,100137.79
2019-04-20T17:01:31.708Z,100134.72
2019-04-20T17:04:06.754Z,100131.34
2019-04-20T17:06:30.266Z,100127.34
2019-04-20T17:08:58.786Z,100124.56
2019-04-20T17:11:27.702Z,100125.43
2019-04-20T17:13:58.281Z,100131.69
2019-04-20T17:16:25.930Z,100137.22
2019-04-20T17:18:55.260Z,100134.05
2019-04-20T17:21:26.785Z,100128.94
2019-04-20T17:23:53.249Z,100124.82
2019-04-20T17:26:32.776Z,100130.97
2019-04-20T17:29:08.272Z,100124.30
2019-04-20T17:31:55.709Z,100123.86
2019-04-20T17:34:41.129Z,100126.27
2019-04-20T17:36:54.652Z,100118.42
2019-04-20T17:39:31.045Z,100099.77
2019-04-20T17:42:07.617Z,100122.20
2019-04-20T17:44:35.686Z,100127.28
2019-04-20T17:47:03.922Z,100120.59
2019-04-20T17:49:35.557Z,100121.75
2019-04-20T17:52:22.300Z,100127.58
2019-04-20T17:54:53.443Z,100126.34
2019-04-20T17:57:21.619Z,100129.86
2019-04-20T17:59:59.637Z,100132.36
2019-04-20T18:02:58.556Z,100135.80
2019-04-20T18:05:39.114Z,100131.86
2019-04-20T18:08:19.335Z,100140.40
2019-04-20T18:10:35.447Z,100142.05
2019-04-20T18:12:54.023Z,100141.69
2019-04-20T18:15:35.882Z,100144.40
2019-04-20T18:18:28.734Z,100144.31
2019-04-20T18:20:56.891Z,100154.71
2019-04-20T18:23:33.284Z,100163.79
2019-04-20T18:26:19.787Z,100169.95
2019-04-20T18:28:40.119Z,100173.19
2019-04-20T18:31:17.604Z,100164.30
2019-04-20T18:33:46.581Z,100166.91
2019-04-20T18:36:24.597Z,100171.69
2019-04-20T18:38:54.035Z,100181.39
2019-04-20T18:41:23.130Z,100183.02
2019-04-20T18:43:51.786Z,100185.47
2019-04-20T18:46:34.660Z,100186.92
2019-04-20T18:49:04.804Z,100185.88
2019-04-20T18:51:15.489Z,100194.53
2019-04-20T18:53:46.886Z,100193.20
2019-04-20T18:56:23.849Z,100194.95
2019-04-20T18:58:47.138Z,100193.44
2019-04-20T19:01:28.148Z,100188.47
2019-04-20T19:03:50.592Z,100193.23
2019-04-20T19:06:21.027Z,100188.05
2019-04-20T19:08:51.757Z,100191.51
2019-04-20T19:11:25.748Z,100196.41
2019-04-20T19:14:16.385Z,100202.68
2019-04-20T19:16:52.833Z,100207.57
2019-04-20T19:19:24.449Z,100213.52
2019-04-20T19:21:52.064Z,100208.83
2019-04-20T19:24:23.867Z,100215.70
2019-04-20T19:26:55.644Z,100222.17
2019-04-20T19:29:28.415Z,100222.48
2019-04-20T19:32:07.622Z,100224.67
2019-04-20T19:34:37.758Z,100231.08
2019-04-20T19:37:00.862Z,100223.89
2019-04-20T19:39:32.169Z,100232.30
2019-04-20T19:41:55.505Z,100234.88
2019-04-20T19:44:27.532Z,100232.68
2019-04-20T19:47:11.023Z,100239.16
2019-04-20T19:49:32.447Z,100239.09
2019-04-20T19:52:29.643Z,100242.59
2019-04-20T19:54:55.517Z,100252.14
2019-04-20T19:57:25.386Z,100246.81
2019-04-20T19:59:41.294Z,100249.70
2019-04-20T20:02:07.618Z,100251.69
2019-04-20T20:04:42.532Z,100246.76
2019-04-20T20:07:17.097Z,100253.57
2019-04-20T20:09:41.534Z,100250.87
2019-04-20T20:12:11.858Z,100250.80
2019-04-20T20:14:40.801Z,100256.14
2019-04-20T20:17:30.085Z,100260.27
2019-04-20T20:20:03.826Z,100263.55
2019-04-20T20:22:17.459Z,100266.09
2019-04-20T20:24:34.224Z,100263.23
2019-04-20T20:27:06.145Z,100265.84
2019-04-20T20:29:40.680Z,100270.94
2019-04-20T20:32:15.517Z,100272.94
2019-04-20T20:34:38.428Z,100270.33
2019-04-20T20:37:08.464Z,100271.20
2019-04-20T20:39:33.003Z,100282.28
2019-04-20T20:42:10.879Z,100283.58
2019-04-20T20:44:42.590Z,100285.97
2019-04-20T20:47:23.231Z,100287.33
2019-04-20T20:50:01.645Z,100293.86
2019-04-20T20:52:17.350Z,100291.23
2019-04-20T20:54:41.244Z,100292.73
2019-04-20T20:57:05.420Z,100291.19
2019-04-20T20:59:41.566Z,100290.51
2019-04-20T21:02:06.381Z,100287.63
2019-04-20T21:04:29.895Z,100291.37
2019-04-20T21:06:58.378Z,100294.40
2019-04-20T21:09:27.176Z,100293.09
2019-04-20T21:12:01.830Z,100292.14
2019-04-20T21:14:29.150Z,100295.92
2019-04-20T21:17:03.005Z,100292.52
2019-04-20T21:19:45.197Z,100297.30
2019-04-20T21:22:02.790Z,100294.16
2019-04-20T21:24:30.544Z,100294.69
2019-04-20T21:27:01.586Z,100296.17
2019-04-20T21:29:35.561Z,100296.70
2019-04-20T21:32:05.086Z,100298.50
2019-04-20T21:34:29.009Z,100295.06
2019-04-20T21:37:03.509Z,100299.28
2019-04-20T21:39:37.342Z,100304.80
2019-04-20T21:42:04.668Z,100304.95
2019-04-20T21:44:31.698Z,100310.44
2019-04-20T21:46:56.730Z,100309.09
2019-04-20T21:49:38.854Z,100303.73
2019-04-20T21:52:03.599Z,100309.11
2019-04-20T21:54:29.883Z,100310.69
2019-04-20T21:57:03.416Z,100305.80
2019-04-20T21:59:35.312Z,100308.98
2019-04-20T22:02:03.484Z,100303.23
2019-04-20T22:04:27.259Z,100307.75
2019-04-20T22:06:56.187Z,100305.33
2019-04-20T22:09:32.226Z,100308.80
2019-04-20T22:11:56.039Z,100299.16
2019-04-20T22:14:27.628Z,100303.23
2019-04-20T22:16:56.774Z,100307.87
2019-04-20T22:19:36.192Z,100306.95
2019-04-20T22:22:02.724Z,100304.67
2019-04-20T22:24:40.039Z,100307.00
2019-04-20T22:27:04.628Z,100308.81
2019-04-20T22:29:21.795Z,100314.45
2019-04-20T22:31:56.721Z,100313.50
2019-04-20T22:34:23.827Z,100315.55
2019-04-20T22:36:50.443Z,100316.59
2019-04-20T22:39:32.203Z,100317.52
2019-04-20T22:42:01.190Z,100318.39
2019-04-20T22:44:27.131Z,100321.27
2019-04-20T22:46:54.297Z,100317.48
2019-04-20T22:49:42.029Z,100315.52
2019-04-20T22:52:00.626Z,100310.39
2019-04-20T22:54:39.483Z,100308.44
2019-04-20T22:57:03.339Z,100311.09
2019-04-20T22:59:30.744Z,100307.28
2019-04-20T23:01:56.769Z,100307.16
2019-04-20T23:04:21.466Z,100299.39
2019-04-20T23:06:50.630Z,100303.69
2019-04-20T23:09:20.602Z,100299.75
2019-04-20T23:11:53.776Z,100298.42
2019-04-20T23:14:20.378Z,100300.57
2019-04-20T23:16:52.059Z,100297.45
2019-04-20T23:19:30.002Z,100292.19
2019-04-20T23:21:56.853Z,100293.00
2019-04-20T23:24:18.836Z,100293.00
2019-04-20T23:26:48.641Z,100290.03
2019-04-20T23:29:17.521Z,100284.10
2019-04-20T23:31:51.183Z,100281.79
2019-04-20T23:34:19.994Z,100280.13
2019-04-20T23:36:48.525Z,100274.03
2019-04-20T23:39:14.863Z,100268.09
2019-04-20T23:41:52.477Z,100267.42
2019-04-20T23:44:19.168Z,100269.56
2019-04-20T23:47:15.532Z,100266.55
2019-04-20T23:50:03.395Z,100266.39
2019-04-20T23:52:38.918Z,100257.15
2019-04-20T23:54:51.352Z,100252.85
2019-04-20T23:57:15.665Z,100252.35
2019-04-20T23:59:46.265Z,100250.35
